Time;durP1;ratioP1;P1;durP2;ratioP2;P2;SDS_P1;SDS_P2;PMS_P1;PMS_P2;Temp;Humidity;BMP_temperature;BMP_pressure;BME280_temperature;BME280_humidity;BME280_pressure;Samples;Min_cycle;Max_cycle;Signal;HPM_P1;HPM_P2
2022/05/02 00:00:12;;;;;;;12.85;10.48;;;8.20;99.90;;;7.73;100.00;97368.13;5023042;28;20026;-58
2022/05/02 00:02:39;;;;;;;12.32;10.07;;;8.20;99.90;;;7.72;100.00;97369.06;5029265;28;20798;-58
2022/05/02 00:05:06;;;;;;;13.30;11.07;;;8.20;99.90;;;7.71;100.00;97368.16;5027582;28;20061;-58
2022/05/02 00:07:33;;;;;;;14.05;11.23;;;8.20;99.90;;;7.71;100.00;97360.28;5028634;28;20037;-58
2022/05/02 00:09:59;;;;;;;14.65;11.18;;;8.20;99.90;;;7.71;100.00;97359.44;5026726;28;20041;-58
2022/05/02 00:12:25;;;;;;;14.48;11.25;;;8.20;99.90;;;7.68;100.00;97357.78;5026043;28;20504;-58
2022/05/02 00:14:51;;;;;;;13.35;10.80;;;8.20;99.90;;;7.66;100.00;97356.91;5025631;28;20040;-58
2022/05/02 00:17:17;;;;;;;13.85;10.40;;;8.20;99.90;;;7.64;100.00;97351.75;5005905;28;20021;-58
2022/05/02 00:19:43;;;;;;;12.15;9.82;;;8.10;99.90;;;7.61;100.00;97348.31;5027734;28;20283;-58
2022/05/02 00:22:08;;;;;;;13.73;10.15;;;8.10;99.90;;;7.59;100.00;97347.47;5026453;28;20111;-58
2022/05/02 00:24:34;;;;;;;13.95;10.50;;;8.10;99.90;;;7.56;100.00;97342.34;5025868;28;20224;-58
2022/05/02 00:27:00;;;;;;;14.18;10.27;;;8.10;99.90;;;7.54;100.00;97341.50;5025849;28;20060;-58
2022/05/02 00:29:26;;;;;;;12.65;9.93;;;8.10;99.90;;;7.52;100.00;97348.53;5025704;28;20145;-58
2022/05/02 00:31:52;;;;;;;11.63;10.00;;;8.00;99.90;;;7.48;100.00;97339.03;5034339;28;20126;-58
2022/05/02 00:34:18;;;;;;;12.85;10.35;;;8.00;99.90;;;7.43;100.00;97345.25;5034785;28;20331;-58
2022/05/02 00:36:43;;;;;;;13.15;9.90;;;7.90;99.90;;;7.41;100.00;97344.44;5028586;28;20033;-58
2022/05/02 00:39:09;;;;;;;11.80;9.90;;;7.90;99.90;;;7.37;100.00;97345.41;5026367;28;20551;-58
2022/05/02 00:41:35;;;;;;;13.30;9.75;;;7.90;99.90;;;7.38;100.00;97343.66;5024303;28;20748;-58
2022/05/02 00:44:01;;;;;;;13.93;10.95;;;7.90;99.90;;;7.36;100.00;97333.19;5028373;28;20037;-58
2022/05/02 00:46:27;;;;;;;15.77;11.93;;;7.90;99.90;;;7.24;100.00;97325.63;5026293;28;20080;-58
2022/05/02 00:48:54;;;;;;;11.98;10.73;;;7.80;99.90;;;7.36;100.00;97338.44;5027519;28;20025;-58
2022/05/02 00:51:21;;;;;;;12.65;10.70;;;7.90;99.90;;;7.37;100.00;97336.69;5026924;28;20034;-58
2022/05/02 00:53:50;;;;;;;14.85;11.40;;;7.90;99.90;;;7.25;100.00;97304.63;5030513;28;20551;-58
2022/05/02 00:56:17;;;;;;;15.18;10.55;;;7.90;99.90;;;7.42;100.00;97327.78;5027251;28;20071;-58
2022/05/02 00:58:43;;;;;;;13.80;11.23;;;7.90;99.90;;;7.50;100.00;97331.97;5028052;28;21070;-58
2022/05/02 01:01:09;;;;;;;15.55;11.73;;;8.00;99.90;;;7.55;100.00;97330.09;5026458;28;20032;-58
2022/05/02 01:03:35;;;;;;;14.15;11.27;;;8.10;99.90;;;7.56;100.00;97321.34;5029316;28;20037;-58
2022/05/02 01:08:46;;;;;;;13.63;11.13;;;8.20;99.90;;;7.58;100.00;97307.25;5041159;23;20048;-48
2022/05/02 01:11:12;;;;;;;13.35;11.07;;;8.20;99.90;;;7.75;100.00;97319.94;5043001;28;20033;-50
2022/05/02 01:13:48;;;;;;;13.63;10.85;;;8.30;99.90;;;7.81;100.00;97322.41;5052288;28;20553;-52
2022/05/02 01:16:22;;;;;;;13.75;10.48;;;8.30;99.90;;;7.86;100.00;97324.91;5046163;28;20033;-51
2022/05/02 01:18:51;;;;;;;12.75;10.27;;;8.40;99.90;;;7.90;100.00;97318.66;5044718;28;20631;-49
2022/05/02 01:21:20;;;;;;;15.18;11.57;;;8.40;99.90;;;7.96;100.00;97322.88;5045633;28;20047;-53
2022/05/02 01:23:57;;;;;;;15.35;10.95;;;8.50;99.90;;;8.02;100.00;97306.94;5049234;28;20025;-49
2022/05/02 01:26:23;;;;;;;13.43;10.82;;;8.50;99.90;;;8.05;100.00;97308.63;5053406;28;20025;-49
2022/05/02 01:28:52;;;;;;;12.45;10.27;;;8.60;99.90;;;8.15;100.00;97313.59;5049190;28;20539;-52
2022/05/02 01:31:19;;;;;;;13.95;11.35;;;8.70;99.90;;;8.21;100.00;97315.16;5050349;28;20223;-51
2022/05/02 01:33:46;;;;;;;14.95;11.38;;;8.70;99.90;;;8.21;100.00;97308.13;5052721;28;20043;-48
2022/05/02 01:36:12;;;;;;;12.00;10.50;;;8.80;99.90;;;8.31;100.00;97310.50;5054967;28;20032;-48
2022/05/02 01:38:38;;;;;;;12.80;10.20;;;8.80;99.90;;;8.33;100.00;97301.69;5056388;28;20114;-50
2022/05/02 01:41:06;;;;;;;11.95;9.95;;;8.90;99.90;;;8.40;100.00;97308.47;5053700;28;20107;-50
2022/05/02 01:43:32;;;;;;;12.68;9.85;;;8.90;99.90;;;8.44;100.00;97304.03;5051705;28;20018;-52
2022/05/02 01:46:04;;;;;;;12.30;9.73;;;9.00;99.90;;;8.45;100.00;97300.47;5048446;28;20394;-50
2022/05/02 01:48:30;;;;;;;;;;;9.00;99.90;;;8.49;100.00;97295.97;5055765;28;20028;-48
2022/05/02 01:50:57;;;;;;;11.65;9.38;;;9.00;99.90;;;8.50;100.00;97295.94;5048884;28;19923;-51
2022/05/02 01:53:23;;;;;;;11.88;10.00;;;9.00;99.90;;;8.48;100.00;97295.13;5048995;28;20120;-49
2022/05/02 01:55:49;;;;;;;11.35;9.45;;;9.00;99.90;;;8.47;100.00;97292.53;5051402;28;20133;-52
2022/05/02 01:58:15;;;;;;;12.10;9.93;;;9.00;99.90;;;8.44;100.00;97288.25;5052067;28;20036;-52
2022/05/02 02:00:41;;;;;;;11.68;9.90;;;9.00;99.90;;;8.41;100.00;97293.56;5044571;28;20439;-50
2022/05/02 02:03:07;;;;;;;11.15;9.52;;;9.00;99.90;;;8.34;100.00;97295.50;5048069;28;20465;-54
2022/05/02 02:05:51;;;;;;;13.85;10.73;;;8.90;99.90;;;8.29;100.00;97297.44;5051845;28;20044;-52
2022/05/02 02:08:30;;;;;;;13.93;10.98;;;8.80;99.90;;;8.22;100.00;97291.47;5052537;28;20091;-52
2022/05/02 02:11:00;;;;;;;13.82;10.35;;;8.80;99.90;;;8.16;100.00;97289.03;5051876;28;20038;-52
2022/05/02 02:13:26;;;;;;;12.27;9.82;;;8.70;99.90;;;8.09;100.00;97295.34;5051066;28;20032;-50
2022/05/02 02:15:52;;;;;;;14.30;11.10;;;8.60;99.90;;;8.02;100.00;97291.19;5051535;28;20040;-50
2022/05/02 02:18:18;;;;;;;14.68;10.13;;;8.50;99.90;;;7.96;100.00;97288.75;5053040;28;20116;-51
2022/05/02 02:20:50;;;;;;;15.85;11.10;;;8.50;99.90;;;7.98;100.00;97292.19;5049676;28;20024;-50
2022/05/02 02:23:17;;;;;;;;;;;8.50;99.90;;;7.79;100.00;97266.44;5053741;28;20032;-49
2022/05/02 02:25:43;;;;;;;12.93;10.40;;;8.50;99.90;;;7.94;100.00;97285.31;5048523;28;19942;-53
2022/05/02 02:28:09;;;;;;;12.82;11.00;;;8.40;99.90;;;7.94;100.00;97299.28;5051060;28;20028;-50
2022/05/02 02:30:35;;;;;;;15.82;11.32;;;8.40;99.90;;;7.87;100.00;97286.38;5034062;28;20220;-52
2022/05/02 02:33:02;;;;;;;14.00;10.65;;;8.50;99.90;;;7.89;100.00;97293.28;5049778;28;20033;-51
2022/05/02 02:35:29;;;;;;;16.58;11.55;;;8.40;99.90;;;7.89;100.00;97287.19;5047965;28;20032;-51
2022/05/02 02:37:55;;;;;;;13.73;10.48;;;8.40;99.90;;;7.87;100.00;97286.38;5051776;28;20035;-52
2022/05/02 02:40:21;;;;;;;12.82;11.00;;;8.40;99.90;;;7.89;100.00;97279.31;5051579;28;20551;-53
2022/05/02 02:42:47;;;;;;;12.27;10.15;;;8.40;99.90;;;7.73;100.00;97263.97;5051013;28;20456;-50
2022/05/02 02:45:13;;;;;;;13.63;11.18;;;8.40;99.90;;;7.88;100.00;97288.97;5051032;28;20542;-52
2022/05/02 02:47:39;;;;;;;14.30;11.32;;;8.40;99.90;;;7.87;100.00;97281.97;5047603;28;20033;-51
2022/05/02 02:50:05;;;;;;;13.65;11.35;;;8.40;99.90;;;7.86;100.00;97272.41;5050486;28;20055;-53
2022/05/02 02:52:31;;;;;;;15.50;12.32;;;8.40;99.90;;;7.87;100.00;97273.25;5049161;28;20047;-52
2022/05/02 02:54:57;;;;;;;16.02;12.15;;;8.40;99.90;;;7.92;100.00;97268.72;5052292;28;20077;-49
2022/05/02 02:57:23;;;;;;;20.42;12.80;;;8.40;99.90;;;7.96;100.00;97280.88;5050801;28;20120;-54
2022/05/02 02:59:49;;;;;;;15.40;12.65;;;8.50;99.90;;;7.94;100.00;97265.16;5049724;28;20060;-52
2022/05/02 03:02:15;;;;;;;14.32;11.02;;;8.50;99.90;;;8.07;100.00;97275.31;5049063;28;20224;-52
2022/05/02 03:07:27;;;;;;;13.55;10.80;;;8.60;99.90;;;8.14;100.00;97261.09;5037806;28;20098;-53
2022/05/02 03:09:53;;;;;;;15.23;11.65;;;8.70;99.90;;;8.21;100.00;97249.50;5050033;28;20137;-51
2022/05/02 03:12:20;;;;;;;13.88;11.13;;;8.70;99.90;;;8.18;100.00;97242.56;5047936;28;20039;-53
2022/05/02 03:14:46;;;;;;;12.82;10.98;;;8.70;99.90;;;8.27;100.00;97248.44;5049338;28;20073;-52
2022/05/02 03:17:12;;;;;;;12.50;10.88;;;8.80;99.90;;;8.29;100.00;97244.00;5049539;28;20036;-50
2022/05/02 03:19:39;;;;;;;15.68;11.60;;;8.80;99.90;;;8.31;100.00;97245.69;5048097;28;20433;-50
2022/05/02 03:22:06;;;;;;;12.52;10.80;;;8.80;99.90;;;8.36;100.00;97245.53;5029625;28;20078;-51
2022/05/02 03:24:32;;;;;;;15.52;11.70;;;8.90;99.90;;;8.38;100.00;97246.34;5049203;28;20083;-53
2022/05/02 03:26:58;;;;;;;13.68;11.40;;;8.90;99.90;;;8.38;100.00;97247.22;5046073;28;20032;-51
2022/05/02 03:29:23;;;;;;;13.20;10.82;;;8.90;99.90;;;8.43;100.00;97241.00;5046221;28;20029;-54
2022/05/02 03:31:49;;;;;;;13.50;11.00;;;8.90;99.90;;;8.43;100.00;97244.47;5046284;28;20143;-52
2022/05/02 03:34:15;;;;;;;12.35;10.80;;;9.00;99.90;;;8.46;100.00;97244.38;5050467;28;20043;-53
2022/05/02 03:36:41;;;;;;;12.82;10.30;;;9.00;99.90;;;8.44;100.00;97238.31;5050354;28;20028;-52
2022/05/02 03:39:07;;;;;;;13.63;10.85;;;9.00;99.90;;;8.35;100.00;97212.28;5036858;28;20029;-52
2022/05/02 03:41:33;;;;;;;12.85;10.45;;;9.00;99.90;;;8.35;100.00;97210.53;5043004;28;20132;-53
2022/05/02 03:43:59;;;;;;;10.82;8.80;;;9.00;99.90;;;8.52;100.00;97233.66;5049462;28;20255;-52
2022/05/02 03:46:25;;;;;;;9.60;8.52;;;9.10;99.90;;;8.54;100.00;97231.88;5044021;28;20503;-52
2022/05/02 03:48:51;;;;;;;10.13;8.70;;;9.10;99.90;;;8.52;100.00;97228.41;5042954;28;20548;-53
2022/05/02 03:51:18;;;;;;;13.27;10.88;;;9.10;99.90;;;8.51;100.00;97231.97;5045776;28;20039;-51
2022/05/02 03:53:43;;;;;;;13.10;10.35;;;9.10;99.90;;;8.54;100.00;97236.25;5044944;28;20028;-53
2022/05/02 03:56:09;;;;;;;11.18;8.88;;;9.10;99.90;;;8.52;100.00;97241.56;5048917;28;20031;-52
2022/05/02 03:58:35;;;;;;;12.88;10.55;;;9.00;99.90;;;8.53;100.00;97242.44;5044677;28;20028;-53
2022/05/02 04:01:02;;;;;;;12.13;9.38;;;9.10;99.90;;;8.51;100.00;97242.47;5046251;28;20173;-53
2022/05/02 04:03:27;;;;;;;11.50;9.07;;;9.10;99.90;;;8.51;100.00;97245.09;5043877;28;20043;-54
2022/05/02 04:05:53;;;;;;;13.25;11.63;;;9.10;99.90;;;8.49;100.00;97244.28;5045371;28;20037;-54
2022/05/02 04:08:19;;;;;;;12.30;10.10;;;9.00;99.90;;;8.44;100.00;97233.06;5045254;28;20028;-53
2022/05/02 04:10:45;;;;;;;12.23;9.88;;;9.00;99.90;;;8.45;100.00;97237.41;5045347;28;20181;-54
2022/05/02 04:13:11;;;;;;;13.40;10.27;;;9.00;99.90;;;8.54;100.00;97242.38;5044483;28;20041;-54
2022/05/02 04:15:37;;;;;;;13.35;10.32;;;9.10;99.90;;;8.57;100.00;97242.28;5049074;28;20534;-55
2022/05/02 04:18:03;;;;;;;13.80;11.20;;;9.10;99.90;;;8.60;100.00;97241.34;5043297;28;20107;-53
2022/05/02 04:20:29;;;;;;;14.25;10.18;;;9.10;99.90;;;8.60;100.00;97246.59;5044978;28;20108;-54
2022/05/02 04:22:55;;;;;;;11.90;9.32;;;9.10;99.90;;;8.62;100.00;97241.28;5049875;28;20419;-54
2022/05/02 04:25:24;;;;;;;11.38;8.45;;;9.20;99.90;;;8.52;100.00;97214.41;5051912;28;20588;-54
2022/05/02 04:27:49;;;;;;;12.32;9.65;;;9.20;99.90;;;8.67;100.00;97239.34;5050568;28;20071;-53
2022/05/02 04:30:15;;;;;;;15.75;10.85;;;9.20;99.90;;;8.69;100.00;97242.81;5054164;28;20082;-54
2022/05/02 04:32:41;;;;;;;14.43;10.32;;;9.20;99.90;;;8.70;100.00;97240.09;5053743;28;20760;-54
2022/05/02 04:35:10;;;;;;;12.70;10.70;;;9.20;99.90;;;8.66;100.00;97225.34;5049709;28;20082;-54
2022/05/02 04:37:36;;;;;;;11.82;9.65;;;9.20;99.90;;;8.71;100.00;97233.94;5049182;28;20094;-54
2022/05/02 04:40:03;;;;;;;14.07;10.02;;;9.20;99.90;;;8.73;100.00;97229.50;5052123;28;20035;-54
2022/05/02 04:42:29;;;;;;;13.63;10.38;;;9.20;99.90;;;8.75;100.00;97234.72;5049770;28;20037;-53
2022/05/02 04:44:54;;;;;;;13.55;11.07;;;9.30;99.90;;;8.80;100.00;97230.16;5048498;28;20098;-51
2022/05/02 04:47:20;;;;;;;14.55;10.95;;;9.20;99.90;;;8.83;100.00;97234.47;5040330;28;20085;-55
2022/05/02 04:49:46;;;;;;;13.07;10.98;;;9.30;99.90;;;8.83;100.00;97237.09;5051923;28;20464;-52
2022/05/02 04:52:11;;;;;;;12.68;10.45;;;9.30;99.90;;;8.88;100.00;97249.19;5050100;28;20029;-54
2022/05/02 04:54:37;;;;;;;12.07;10.73;;;9.40;99.90;;;8.90;100.00;97239.50;5052486;28;20036;-55
2022/05/02 04:57:03;;;;;;;14.73;11.52;;;9.40;99.90;;;8.91;100.00;97250.84;5053485;28;20028;-54
2022/05/02 04:59:29;;;;;;;12.75;10.70;;;9.40;99.90;;;8.92;100.00;97244.69;5052952;28;20519;-52
2022/05/02 05:01:56;;;;;;;14.50;11.50;;;9.40;99.90;;;8.91;100.00;97245.59;5053417;28;20044;-53
2022/05/02 05:04:22;;;;;;;14.65;11.60;;;9.40;99.90;;;8.90;100.00;97239.50;5052476;28;20524;-55
2022/05/02 05:06:47;;;;;;;14.73;11.38;;;9.40;99.90;;;8.87;100.00;97233.47;5052720;28;20063;-54
2022/05/02 05:09:13;;;;;;;15.43;11.68;;;9.40;99.90;;;8.92;100.00;97248.19;5057326;28;20043;-55
2022/05/02 05:12:07;;;;;;;13.88;11.52;;;9.40;99.90;;;8.92;100.00;97234.19;5055842;28;20040;-53
2022/05/02 05:18:52;;;;;;;16.05;10.73;;;9.50;99.90;;;9.02;100.00;97237.34;5055481;28;20939;-52
2022/05/02 05:22:06;;;;;;;13.60;10.93;;;9.50;99.90;;;9.07;100.00;97232.81;5048697;28;20048;-54
2022/05/02 05:24:48;;;;;;;15.02;12.02;;;9.50;99.90;;;9.13;100.00;97235.22;5031428;28;20048;-53
2022/05/02 05:27:47;;;;;;;16.55;12.85;;;9.60;99.90;;;9.17;100.00;97236.84;5048536;28;20087;-52
2022/05/02 05:30:13;;;;;;;15.15;11.77;;;9.70;99.90;;;9.23;100.00;97233.16;5029194;28;20028;-54
2022/05/02 05:32:46;;;;;;;18.58;12.85;;;9.70;99.90;;;9.32;100.00;97225.78;5035978;28;20464;-53
2022/05/02 05:35:22;;;;;;;16.48;13.35;;;9.80;99.90;;;9.39;100.00;97234.34;5054187;28;20029;-50
2022/05/02 05:38:09;;;;;;;14.35;12.60;;;9.90;99.90;;;9.43;100.00;97245.63;5052721;28;20032;-51
2022/05/02 05:40:44;;;;;;;19.08;13.82;;;9.90;99.90;;;9.45;100.00;97243.78;5056844;28;20492;-53
2022/05/02 05:43:45;;;;;;;16.40;13.30;;;9.90;99.90;;;9.50;100.00;97252.38;5023801;28;20430;-53
2022/05/02 05:47:03;;;;;;;18.08;13.88;;;10.00;99.90;;;9.54;100.00;97236.41;5031303;28;20029;-53
2022/05/02 05:49:47;;;;;;;15.10;12.50;;;10.00;99.90;;;9.63;100.00;97243.13;5021029;28;20977;-54
2022/05/02 05:52:44;;;;;;;16.92;13.00;;;10.10;99.90;;;9.69;100.00;97245.56;5050963;28;20038;-53
2022/05/02 05:55:58;;;;;;;19.65;14.70;;;10.20;99.90;;;9.77;100.00;97237.38;5040223;28;20511;-53
2022/05/02 05:59:06;;;;;;;17.98;14.15;;;10.20;99.90;;;9.87;100.00;97240.50;5033639;28;20127;-54
2022/05/02 06:01:32;;;;;;;23.02;16.70;;;10.30;99.90;;;9.96;100.00;97249.84;5031907;28;20036;-54
2022/05/02 06:04:07;;;;;;;21.45;16.15;;;10.40;99.90;;;9.91;100.00;97223.72;5055202;28;20420;-53
2022/05/02 06:06:36;;;;;;;23.02;17.42;;;10.50;99.90;;;10.07;100.00;97245.94;5044912;28;20127;-53
2022/05/02 06:09:05;;;;;;;24.77;18.60;;;10.50;99.90;;;10.15;100.00;97250.03;5050121;28;20055;-54
2022/05/02 06:11:35;;;;;;;21.05;16.08;;;10.60;99.90;;;10.21;100.00;97244.53;5054111;28;20052;-54
2022/05/02 06:14:02;;;;;;;18.80;14.57;;;10.70;99.90;;;10.33;100.00;97249.38;5045586;28;20044;-52
2022/05/02 06:19:25;;;;;;;23.08;17.85;;;10.90;99.90;;;10.55;100.00;97244.16;5056091;28;20039;-52
2022/05/02 06:21:52;;;;;;;24.77;16.83;;;11.00;99.90;;;10.64;100.00;97246.41;5052671;28;20036;-54
2022/05/02 06:24:19;;;;;;;20.45;16.40;;;11.10;99.90;;;10.74;100.00;97241.63;5056020;28;20028;-49
2022/05/02 06:26:47;;;;;;;19.35;15.75;;;11.20;99.90;;;10.92;100.00;97247.94;5055381;28;20595;-52
2022/05/02 06:29:13;;;;;;;17.98;14.40;;;11.30;99.90;;;11.02;100.00;97241.38;5053779;28;20039;-53
2022/05/02 06:31:45;;;;;;;18.85;13.77;;;11.50;99.90;;;11.16;100.00;97255.75;5035392;28;20071;-53
2022/05/02 06:34:13;;;;;;;16.05;13.40;;;11.50;99.90;;;11.24;100.00;97251.88;5056806;28;20035;-52
2022/05/02 06:36:56;;;;;;;18.25;14.30;;;11.60;99.90;;;11.32;100.00;97240.97;5049439;28;20669;-53
2022/05/02 06:40:01;;;;;;;16.00;12.85;;;11.70;99.90;;;11.35;100.00;97240.00;5038071;28;20040;-52
2022/05/02 06:42:37;;;;;;;20.23;16.55;;;11.80;99.90;;;11.36;100.00;97250.50;5053763;28;20032;-54
2022/05/02 06:45:25;;;;;;;19.25;15.07;;;11.90;99.90;;;11.50;100.00;97238.50;5054526;28;20563;-51
2022/05/02 06:48:19;;;;;;;16.15;13.65;;;12.00;99.90;;;11.72;100.00;97251.59;5054170;28;20048;-51
2022/05/02 06:50:49;;;;;;;18.17;13.98;;;12.10;99.90;;;11.92;100.00;97250.78;5038314;28;20412;-53
2022/05/02 06:53:35;;;;;;;20.83;14.93;;;12.40;99.90;;;12.10;100.00;97251.75;5056541;28;20021;-52
2022/05/02 06:56:30;;;;;;;20.83;15.55;;;12.50;99.90;;;12.25;100.00;97245.72;5051284;28;20071;-52
2022/05/02 06:59:46;;;;;;;20.45;14.85;;;12.70;99.90;;;12.38;100.00;97246.91;5035499;28;20384;-49
2022/05/02 07:02:12;;;;;;;18.05;14.48;;;12.80;99.90;;;12.50;100.00;97250.75;5034655;28;20060;-52
2022/05/02 07:04:55;;;;;;;20.60;14.85;;;12.90;99.90;;;12.63;98.83;97248.38;5054731;28;20090;-52
2022/05/02 07:10:11;;;;;;;18.30;13.45;;;13.20;99.90;;;12.97;95.99;97246.75;5012312;28;20098;-58
2022/05/02 07:13:15;;;;;;;19.95;15.25;;;13.30;99.90;;;13.10;94.70;97247.00;5026218;28;20030;-57
2022/05/02 07:15:52;;;;;;;17.50;15.20;;;13.40;99.90;;;13.02;90.74;97246.53;5009443;28;20063;-57
2022/05/02 07:19:01;;;;;;;19.95;14.55;;;13.50;99.90;;;13.13;92.08;97250.34;5023576;28;20065;-57
2022/05/02 07:21:58;;;;;;;16.77;13.27;;;13.50;99.90;;;13.32;92.60;97250.31;5015855;28;20559;-58
2022/05/02 07:25:12;;;;;;;16.42;12.38;;;13.60;99.90;;;13.52;94.36;97251.09;5001979;28;20041;-58
2022/05/02 07:27:56;;;;;;;15.82;12.18;;;13.80;99.90;;;13.62;94.35;97249.72;5013252;28;20041;-58
2022/05/02 07:30:24;;;;;;;17.23;14.05;;;14.00;99.90;;;13.68;90.91;97253.84;5010943;28;20033;-57
2022/05/02 07:32:53;;;;;;;16.75;13.48;;;14.00;99.90;;;13.73;90.75;97247.34;5013376;28;20562;-57
2022/05/02 07:35:21;;;;;;;14.93;12.63;;;14.10;99.90;;;13.80;89.78;97253.19;5011022;28;20060;-58
2022/05/02 07:37:48;;;;;;;21.25;15.20;;;14.10;99.90;;;13.87;89.15;97257.25;5013479;28;20418;-58
2022/05/02 07:40:19;;;;;;;19.88;15.20;;;14.20;99.90;;;13.92;87.41;97241.06;5009925;28;20029;-58
2022/05/02 07:42:45;;;;;;;15.75;12.77;;;14.30;99.90;;;14.07;87.38;97250.03;5015118;28;20040;-58
2022/05/02 07:45:14;;;;;;;13.90;11.75;;;14.40;99.90;;;14.21;87.84;97249.25;5013701;28;20354;-58
2022/05/02 07:47:43;;;;;;;16.38;13.55;;;14.50;99.90;;;14.32;87.11;97253.06;5010479;28;20340;-57
2022/05/02 07:50:12;;;;;;;16.70;13.80;;;14.60;99.90;;;14.35;85.50;97244.06;5015339;28;20043;-57
2022/05/02 07:52:41;;;;;;;19.67;13.52;;;14.70;99.90;;;14.40;82.67;97242.03;5003377;28;20029;-57
2022/05/02 07:55:09;;;;;;;17.40;12.88;;;14.80;99.90;;;14.47;82.00;97239.91;5001905;28;20884;-58
2022/05/02 07:57:38;;;;;;;23.13;17.00;;;14.80;99.90;;;14.48;82.16;97245.13;5017069;28;20341;-58
2022/05/02 08:00:07;;;;;;;19.60;16.17;;;14.90;99.90;;;14.48;80.15;97252.22;5016289;28;20040;-57
2022/05/02 08:02:34;;;;;;;22.25;15.15;;;14.90;99.90;;;14.58;80.93;97253.47;5009964;28;20489;-57
2022/05/02 08:05:00;;;;;;;19.35;13.68;;;15.00;99.90;;;14.62;80.62;97249.69;5010281;28;20106;-58
2022/05/02 08:07:39;;;;;;;15.35;12.13;;;15.00;99.90;;;14.72;80.56;97250.03;5019559;28;20482;-58
2022/05/02 08:10:19;;;;;;;19.30;13.82;;;15.00;99.90;;;14.85;81.93;97251.03;5017974;28;20040;-58
2022/05/02 08:13:47;;;;;;;20.17;14.57;;;15.10;99.90;;;14.90;81.05;97256.13;5017213;28;20041;-58
2022/05/02 08:16:23;;;;;;;22.23;14.15;;;15.20;99.90;;;14.94;79.25;97241.72;4930614;28;20043;-58
2022/05/02 08:19:09;;;;;;;19.13;14.13;;;15.30;99.90;;;15.07;78.85;97253.34;5020586;28;20444;-57
2022/05/02 08:27:15;;;;;;;19.15;15.10;;;15.40;99.90;;;15.21;78.87;97254.34;5020089;28;20033;-58
2022/05/02 08:28:07;;;;;;;17.70;12.77;;;15.50;99.90;;;15.15;74.92;97236.13;4990937;28;20120;-58
2022/05/02 08:30:58;;;;;;;15.85;13.30;;;15.60;99.90;;;15.26;74.36;97254.94;5020555;28;20119;-58
2022/05/02 08:33:26;;;;;;;19.20;14.05;;;15.70;99.90;;;15.31;71.22;97258.19;5021116;28;20080;-58
2022/05/02 08:36:15;;;;;;;16.90;13.65;;;15.70;99.90;;;15.35;72.45;97242.94;5024404;28;20037;-57
2022/05/02 08:39:05;;;;;;;21.25;15.95;;;15.70;99.90;;;15.41;72.71;97246.06;5004464;28;20033;-58
2022/05/02 08:41:33;;;;;;;21.42;14.85;;;15.80;99.90;;;15.57;72.98;97243.34;5006469;28;20560;-58
2022/05/02 08:44:23;;;;;;;17.08;12.80;;;15.90;99.90;;;15.64;68.50;97242.03;5021609;28;20042;-58
2022/05/02 08:47:15;;;;;;;16.63;12.85;;;16.00;99.90;;;15.68;70.83;97239.19;5010760;28;20098;-58
2022/05/02 08:50:08;;;;;;;;;;;16.00;99.90;;;15.69;67.39;97238.28;5008807;28;22149;-58
2022/05/02 08:53:22;;;;;;;12.93;10.68;;;16.10;99.90;;;15.89;70.39;97232.63;5015820;28;19979;-58
2022/05/02 08:56:28;;;;;;;18.73;12.75;;;16.30;99.90;;;16.01;66.41;97236.34;5020993;28;20055;-58
2022/05/02 08:59:45;;;;;;;17.00;12.70;;;16.40;99.90;;;16.23;65.35;97239.34;5006077;28;20037;-58
2022/05/02 09:03:16;;;;;;;11.73;9.82;;;16.60;99.90;;;16.60;63.82;97238.88;5019273;28;20029;-58
2022/05/02 09:06:18;;;;;;;11.60;9.40;;;16.90;99.90;;;16.82;59.94;97232.16;5013283;28;20107;-58
2022/05/02 09:09:19;;;;;;;14.23;11.30;;;17.20;99.90;;;16.85;58.96;97235.50;5024046;28;20162;-58
2022/05/02 09:12:19;;;;;;;11.45;10.23;;;17.40;99.90;;;17.06;57.76;97237.72;5001788;28;20047;-58
2022/05/02 09:15:35;;;;;;;12.63;10.05;;;17.50;99.90;;;17.25;55.89;97234.69;5023121;28;20083;-58
2022/05/02 09:18:31;;;;;;;14.52;10.90;;;17.60;99.90;;;17.24;57.97;97244.47;5021786;28;20385;-57
2022/05/02 09:21:24;;;;;;;16.60;12.88;;;17.70;99.90;;;17.33;58.64;97238.53;5022384;28;20543;-58
2022/05/02 09:23:53;;;;;;;;;;;17.90;99.90;;;17.49;58.86;97241.03;5022989;28;20033;-58
2022/05/02 09:26:57;;;;;;;15.10;10.85;;;18.00;99.90;;;17.38;57.43;97240.06;5021541;28;19917;-58
2022/05/02 09:29:51;;;;;;;15.13;11.35;;;17.90;99.90;;;17.05;58.46;97236.88;5023966;28;20396;-58
2022/05/02 09:32:45;;;;;;;17.20;10.95;;;17.60;99.90;;;16.91;60.16;97235.09;5016823;28;20373;-58
2022/05/02 09:35:31;;;;;;;15.05;11.15;;;17.50;99.90;;;16.97;60.06;97234.69;5012649;28;20034;-58
2022/05/02 09:38:32;;;;;;;13.65;10.80;;;17.50;99.90;;;16.94;56.53;97234.91;5018919;28;20026;-58
2022/05/02 09:41:00;;;;;;;12.60;9.77;;;17.40;99.90;;;16.93;58.34;97233.19;4991458;28;20033;-58
2022/05/02 09:50:45;;;;;;;12.55;10.30;;;17.80;99.90;;;17.55;58.06;97227.31;5022807;28;20053;-57
2022/05/02 09:54:00;;;;;;;13.93;10.63;;;18.00;99.90;;;17.68;55.32;97221.13;5010834;28;20061;-58
2022/05/02 09:56:38;;;;;;;13.32;8.98;;;18.10;99.90;;;17.71;56.06;97223.56;5017824;28;20128;-58
2022/05/02 09:59:17;;;;;;;12.07;7.28;;;18.10;99.90;;;17.33;52.39;97187.91;5010366;28;20132;-58
2022/05/02 10:01:48;;;;;;;9.68;7.00;;;17.90;99.20;;;17.40;52.01;97214.16;5022151;28;20481;-58
2022/05/02 10:04:32;;;;;;;9.63;7.47;;;17.90;98.60;;;17.47;53.25;97212.78;5020393;28;20079;-58
2022/05/02 10:07:08;;;;;;;8.27;6.53;;;17.90;98.50;;;17.56;53.62;97209.47;5019932;28;20033;-58
2022/05/02 10:09:37;;;;;;;10.02;7.40;;;18.10;99.20;;;17.65;53.02;97208.00;5022361;28;20021;-58
2022/05/02 10:12:10;;;;;;;10.38;7.35;;;18.10;98.90;;;17.78;52.16;97210.66;5018571;28;20505;-58
2022/05/02 10:15:00;;;;;;;11.30;7.15;;;18.20;98.40;;;17.75;50.72;97207.25;5019913;28;20040;-57
2022/05/02 10:17:44;;;;;;;9.25;7.22;;;18.20;97.40;;;17.55;52.02;97207.78;5022805;28;20025;-57
2022/05/02 10:20:18;;;;;;;9.82;7.90;;;18.00;97.70;;;17.41;53.00;97199.84;5003184;28;20071;-57
2022/05/02 10:23:05;;;;;;;8.88;6.60;;;17.90;98.20;;;17.31;52.80;97196.97;5002938;28;20056;-57
2022/05/02 10:26:06;;;;;;;8.88;7.28;;;17.80;97.60;;;17.29;53.36;97197.06;5019892;28;20037;-58
2022/05/02 10:29:27;;;;;;;9.40;7.05;;;17.80;98.60;;;17.53;53.19;97191.03;5012566;28;20064;-58
2022/05/02 10:32:53;;;;;;;9.93;7.18;;;17.90;97.60;;;17.88;51.21;97198.44;5007162;28;20045;-58
2022/05/02 10:35:21;;;;;;;8.68;6.35;;;18.20;97.30;;;18.07;50.68;97198.88;5009901;28;20064;-58
2022/05/02 10:37:59;;;;;;;8.27;6.80;;;18.50;96.60;;;18.16;49.57;97199.16;5008167;28;20052;-57
2022/05/02 10:40:38;;;;;;;7.45;5.88;;;18.70;95.80;;;18.10;48.68;97190.63;5010380;28;20036;-57
2022/05/02 10:43:07;;;;;;;9.02;6.47;;;18.60;95.20;;;18.02;50.47;97193.00;5020475;28;20416;-58
2022/05/02 10:45:40;;;;;;;8.25;7.10;;;18.50;95.70;;;17.82;51.18;97180.16;5019308;28;20107;-58
2022/05/02 10:48:23;;;;;;;8.88;6.63;;;18.40;96.00;;;17.95;50.35;97181.03;5017386;28;20029;-58
2022/05/02 10:51:11;;;;;;;8.20;6.47;;;18.50;95.80;;;17.78;50.95;97186.66;5005702;28;20041;-58
2022/05/02 10:54:08;;;;;;;7.82;6.13;;;18.20;95.90;;;17.54;50.87;97174.06;4997887;28;20044;-58
2022/05/02 10:56:46;;;;;;;7.93;5.57;;;18.00;96.10;;;17.52;51.78;97178.66;5013910;28;20523;-58
2022/05/02 10:59:15;;;;;;;6.18;5.25;;;17.90;96.80;;;17.50;50.13;97176.09;5001824;28;20057;-58
2022/05/02 11:02:26;;;;;;;7.20;6.03;;;18.00;95.70;;;17.47;49.60;97175.47;5021192;28;20037;-58
2022/05/02 11:05:11;;;;;;;5.53;4.70;;;17.90;94.60;;;17.48;50.19;97174.47;5021101;28;20106;-58
2022/05/02 11:07:48;;;;;;;9.50;6.00;;;17.90;95.30;;;17.53;47.75;97165.22;5017653;28;20025;-57
2022/05/02 11:10:19;;;;;;;9.07;5.38;;;18.00;93.60;;;17.63;46.90;97160.09;5019972;28;20033;-58
2022/05/02 11:13:20;;;;;;;6.18;5.40;;;18.10;92.80;;;17.78;47.33;97168.84;5020016;28;20549;-57